createdAt,value
2022-12-12T00:00:00.961Z,366.3
2022-12-12T00:05:06.814Z,369.5
2022-12-12T00:10:00.988Z,369.2
2022-12-12T00:15:01.084Z,372.8
2022-12-12T00:20:01.040Z,364.6
2022-12-12T00:25:01.084Z,362.2
2022-12-12T00:30:01.058Z,359.7
2022-12-12T00:35:01.092Z,348.1
2022-12-12T00:40:01.034Z,347.2
2022-12-12T00:45:01.112Z,355.4
2022-12-12T00:50:01.186Z,373.4
2022-12-12T01:00:01.051Z,417.1
2022-12-12T01:05:01.124Z,450.2
2022-12-12T01:10:02.082Z,481.5
2022-12-12T01:15:01.097Z,504.9
2022-12-12T01:35:01.371Z,574.2
2022-12-12T01:40:01.517Z,612.9
2022-12-12T01:50:01.196Z,591.7
2022-12-12T01:55:01.413Z,575.6
2022-12-12T02:00:01.336Z,541.4
2022-12-12T02:05:01.321Z,502.9
2022-12-12T02:10:01.227Z,470.4
2022-12-12T02:20:06.267Z,467.0
2022-12-12T02:25:01.386Z,479.2
2022-12-12T02:50:01.106Z,495.8
2022-12-12T02:55:01.210Z,479.6
2022-12-12T03:00:01.085Z,486.3
2022-12-12T03:05:01.310Z,487.2
2022-12-12T03:10:01.150Z,499.3
2022-12-12T03:15:01.211Z,497.6
2022-12-12T03:20:01.166Z,514.7
2022-12-12T03:25:01.242Z,509.1
2022-12-12T03:30:01.088Z,525.2
2022-12-12T03:35:01.290Z,509.0
2022-12-12T03:40:01.148Z,503.2
2022-12-12T03:45:01.301Z,490.1
2022-12-12T03:50:01.148Z,496.6
2022-12-12T03:55:01.314Z,474.8
2022-12-12T04:00:01.153Z,473.1
2022-12-12T04:05:01.242Z,500.1
2022-12-12T04:10:01.153Z,512.2
2022-12-12T04:20:01.243Z,520.0
2022-12-12T04:25:01.239Z,517.3
2022-12-12T04:30:01.084Z,492.8
2022-12-12T04:35:01.151Z,499.9
2022-12-12T04:40:01.110Z,494.6
2022-12-12T04:45:01.243Z,496.4
2022-12-12T04:50:01.178Z,517.6
2022-12-12T04:55:01.210Z,529.0
2022-12-12T05:00:01.497Z,538.4
2022-12-12T05:05:01.241Z,554.8
2022-12-12T05:10:01.421Z,558.0
2022-12-12T05:15:01.275Z,560.8
2022-12-12T05:20:06.123Z,562.0
2022-12-12T05:25:01.253Z,523.2
2022-12-12T05:30:01.092Z,493.0
2022-12-12T05:35:01.216Z,457.5
2022-12-12T05:40:01.120Z,423.3
2022-12-12T05:45:01.286Z,395.8
2022-12-12T05:50:01.096Z,390.4
2022-12-12T05:55:01.290Z,391.6
2022-12-12T06:00:01.126Z,409.3
2022-12-12T06:05:01.233Z,422.9
2022-12-12T06:10:01.167Z,442.6
2022-12-12T06:15:06.255Z,468.2
2022-12-12T06:20:01.193Z,470.9
2022-12-12T06:25:01.225Z,485.4
2022-12-12T06:30:01.107Z,494.5
2022-12-12T06:35:01.239Z,480.8
2022-12-12T06:45:01.224Z,454.2
2022-12-12T06:50:01.091Z,438.8
2022-12-12T06:55:01.182Z,415.3
2022-12-12T07:00:01.157Z,410.6
2022-12-12T07:05:01.219Z,392.1
2022-12-12T07:10:01.155Z,396.5
2022-12-12T07:15:01.245Z,383.2
2022-12-12T07:20:01.095Z,377.1
2022-12-12T07:30:01.122Z,407.9
2022-12-12T07:35:01.404Z,390.7
2022-12-12T07:45:01.481Z,386.3
2022-12-12T07:50:01.175Z,393.0
2022-12-12T08:10:01.425Z,324.7
2022-12-12T08:20:01.369Z,323.6
2022-12-12T08:40:02.501Z,306.4
2022-12-12T08:45:01.506Z,304.4
2022-12-12T08:50:01.340Z,305.6
2022-12-12T08:55:01.476Z,300.1
2022-12-12T09:00:01.330Z,302.2
2022-12-12T09:05:01.614Z,306.3
2022-12-12T09:10:01.332Z,305.3
2022-12-12T09:20:01.329Z,319.9
2022-12-12T09:25:01.497Z,329.8
2022-12-12T09:55:01.462Z,361.8
2022-12-12T10:00:01.380Z,367.7
2022-12-12T10:05:01.472Z,381.4
2022-12-12T10:10:01.297Z,384.9
2022-12-12T10:20:01.300Z,388.6
2022-12-12T10:25:01.546Z,387.8
2022-12-12T10:35:01.492Z,381.3
2022-12-12T10:40:01.358Z,386.8
2022-12-12T10:45:01.461Z,396.3
2022-12-12T11:05:01.584Z,511.0
2022-12-12T11:10:02.979Z,503.2
2022-12-12T11:15:01.334Z,495.4
2022-12-12T11:20:01.393Z,492.1
2022-12-12T11:25:01.558Z,487.2
2022-12-12T11:30:01.453Z,478.0
2022-12-12T11:35:01.446Z,470.9
2022-12-12T11:40:01.383Z,442.4
2022-12-12T11:45:01.481Z,438.1
2022-12-12T12:25:02.927Z,526.6
2022-12-12T12:45:01.287Z,513.6
2022-12-12T13:05:02.152Z,410.4
2022-12-12T13:20:07.143Z,416.8
2022-12-12T13:35:01.723Z,425.3
2022-12-12T13:40:01.617Z,418.6
2022-12-12T13:45:02.950Z,400.2
2022-12-12T14:05:01.667Z,354.2
2022-12-12T14:10:01.400Z,326.2
2022-12-12T14:15:01.400Z,334.0
2022-12-12T14:20:01.330Z,332.2
2022-12-12T14:25:06.594Z,349.8
2022-12-12T14:30:01.397Z,348.2
2022-12-12T14:35:06.448Z,362.0
2022-12-12T14:55:01.925Z,322.8
2022-12-12T15:00:01.122Z,329.0
2022-12-12T15:05:05.471Z,331.1
2022-12-12T15:10:01.170Z,333.8
2022-12-12T15:15:01.426Z,344.9
2022-12-12T15:20:01.198Z,365.7
2022-12-12T15:50:02.381Z,431.2
2022-12-12T15:55:02.069Z,428.6
2022-12-12T16:05:02.216Z,421.8
2022-12-12T16:25:01.649Z,363.2
2022-12-12T16:30:01.666Z,366.8
2022-12-12T16:45:06.280Z,293.4
2022-12-12T16:50:01.501Z,391.8
2022-12-12T16:55:01.260Z,449.7
2022-12-12T17:00:01.032Z,415.4
2022-12-12T17:05:01.425Z,414.7
2022-12-12T17:10:01.268Z,450.6
2022-12-12T17:15:01.174Z,425.4
2022-12-12T17:20:06.011Z,411.6
2022-12-12T17:25:01.128Z,443.4
2022-12-12T17:30:00.990Z,466.8
2022-12-12T17:35:01.054Z,454.7
2022-12-12T17:40:01.086Z,487.3
2022-12-12T17:45:01.116Z,472.0
2022-12-12T17:50:01.137Z,461.3
2022-12-12T18:00:01.089Z,456.0
2022-12-12T18:05:01.006Z,449.8
2022-12-12T18:10:00.944Z,465.7
2022-12-12T18:15:01.480Z,462.8
2022-12-12T18:20:01.140Z,457.3
2022-12-12T18:25:01.135Z,447.5
2022-12-12T18:30:01.014Z,452.0
2022-12-12T18:35:01.329Z,456.4
2022-12-12T18:40:01.037Z,484.7
2022-12-12T18:45:01.211Z,490.5
2022-12-12T18:50:00.952Z,519.8
2022-12-12T18:55:01.154Z,522.7
2022-12-12T19:00:01.111Z,508.2
2022-12-12T19:05:01.444Z,495.2
2022-12-12T19:10:01.293Z,501.3
2022-12-12T19:15:17.962Z,489.3
2022-12-12T19:20:01.274Z,473.4
2022-12-12T19:25:01.262Z,480.3
2022-12-12T19:30:02.184Z,490.6
2022-12-12T19:35:01.546Z,477.8
2022-12-12T19:40:02.003Z,446.9
2022-12-12T19:45:01.438Z,444.2
2022-12-12T19:50:00.987Z,455.9
2022-12-12T19:55:01.075Z,445.0
2022-12-12T20:00:01.107Z,455.0
2022-12-12T20:05:01.043Z,488.2
2022-12-12T20:10:00.983Z,499.2
2022-12-12T20:15:01.168Z,471.2
2022-12-12T20:20:00.906Z,476.8
2022-12-12T20:25:01.038Z,482.5
2022-12-12T20:30:00.918Z,487.7
2022-12-12T20:35:01.135Z,498.8
2022-12-12T20:40:00.914Z,504.1
2022-12-12T20:45:01.174Z,507.0
2022-12-12T20:50:00.930Z,498.5
2022-12-12T20:55:01.161Z,505.3
2022-12-12T21:00:00.920Z,507.8
2022-12-12T21:05:01.093Z,523.3
2022-12-12T21:10:00.939Z,513.6
2022-12-12T21:15:03.435Z,521.8
2022-12-12T21:20:11.837Z,502.4
2022-12-12T21:25:01.088Z,488.6
2022-12-12T21:30:01.035Z,495.6
2022-12-12T21:35:01.183Z,503.3
2022-12-12T21:40:00.970Z,499.4
2022-12-12T21:45:01.105Z,521.2
2022-12-12T21:50:00.952Z,513.0
2022-12-12T21:55:01.118Z,505.6
2022-12-12T22:00:00.967Z,489.6
2022-12-12T22:05:01.163Z,487.6
2022-12-12T22:10:11.697Z,488.1
2022-12-12T22:15:01.148Z,485.6
2022-12-12T22:20:00.966Z,461.3
2022-12-12T22:25:01.144Z,458.9
2022-12-12T22:30:01.063Z,456.6
2022-12-12T22:35:01.079Z,451.4
2022-12-12T22:40:00.962Z,448.8
2022-12-12T22:45:01.089Z,477.9
2022-12-12T22:50:01.076Z,475.3
2022-12-12T22:55:01.156Z,472.1
2022-12-12T23:00:01.024Z,475.0
2022-12-12T23:05:01.539Z,470.5
2022-12-12T23:10:01.055Z,445.8
2022-12-12T23:15:01.155Z,459.0
2022-12-12T23:20:00.979Z,464.0
2022-12-12T23:25:01.149Z,444.6
2022-12-12T23:30:01.003Z,472.6
2022-12-12T23:35:01.103Z,487.2
2022-12-12T23:40:01.391Z,498.1
2022-12-12T23:45:01.083Z,482.6
2022-12-12T23:50:06.079Z,496.0
2022-12-12T23:55:01.153Z,473.4
